createdAt,value
2022-10-21T00:04:10.473Z,9.90
2022-10-21T00:06:36.918Z,9.60
2022-10-21T00:09:03.458Z,9.20
2022-10-21T00:11:29.991Z,9.30
2022-10-21T00:13:56.950Z,8.47
2022-10-21T00:16:23.480Z,9.47
2022-10-21T00:18:49.904Z,9.23
2022-10-21T00:21:18.941Z,10.17
2022-10-21T00:23:45.949Z,10.07
2022-10-21T00:26:13.410Z,10.13
2022-10-21T00:28:39.980Z,9.50
2022-10-21T00:31:08.363Z,10.30
2022-10-21T00:33:34.783Z,9.67
2022-10-21T00:36:04.350Z,9.60
2022-10-21T00:38:32.265Z,9.33
2022-10-21T00:40:58.899Z,10.10
2022-10-21T00:43:26.430Z,9.97
2022-10-21T00:45:58.276Z,10.30
2022-10-21T00:48:41.434Z,10.83
2022-10-21T00:51:17.909Z,10.40
2022-10-21T00:53:46.780Z,10.40
2022-10-21T00:56:18.585Z,11.90
2022-10-21T00:58:47.775Z,10.20
2022-10-21T01:01:17.896Z,11.20
2022-10-21T01:03:47.258Z,12.50
2022-10-21T01:06:14.153Z,11.23
2022-10-21T01:08:40.709Z,12.13
2022-10-21T01:11:12.144Z,12.70
2022-10-21T01:14:01.068Z,12.50
2022-10-21T01:16:36.505Z,12.60
2022-10-21T01:19:30.842Z,13.90
2022-10-21T01:22:04.180Z,13.60
2022-10-21T01:24:56.870Z,13.33
2022-10-21T01:27:50.769Z,14.33
2022-10-21T01:30:17.080Z,13.67
2022-10-21T01:32:47.974Z,13.63
2022-10-21T01:35:33.405Z,14.47
2022-10-21T01:38:15.078Z,13.37
2022-10-21T01:41:04.029Z,14.07
2022-10-21T01:43:37.730Z,14.23
2022-10-21T01:46:13.233Z,13.80
2022-10-21T01:48:43.391Z,13.90
2022-10-21T01:51:10.098Z,14.20
2022-10-21T01:53:41.668Z,14.97
2022-10-21T01:56:09.471Z,14.63
2022-10-21T01:58:37.530Z,12.93
2022-10-21T02:01:06.385Z,13.43
2022-10-21T02:03:36.146Z,13.87
2022-10-21T02:06:02.979Z,14.07
2022-10-21T02:08:29.450Z,13.00
2022-10-21T02:10:58.465Z,13.77
2022-10-21T02:13:27.225Z,12.93
2022-10-21T02:15:55.858Z,13.00
2022-10-21T02:18:25.078Z,12.07
2022-10-21T02:20:56.313Z,12.87
2022-10-21T02:23:34.007Z,11.73
2022-10-21T02:26:00.527Z,13.13
2022-10-21T02:28:27.060Z,12.80
2022-10-21T02:30:56.702Z,11.60
2022-10-21T02:33:31.231Z,12.53
2022-10-21T02:36:12.717Z,11.20
2022-10-21T02:38:44.122Z,11.43
2022-10-21T02:41:12.039Z,11.90
2022-10-21T02:43:42.242Z,11.90
2022-10-21T02:46:11.434Z,11.50
2022-10-21T02:48:39.620Z,11.20
2022-10-21T02:51:07.377Z,11.10
2022-10-21T02:53:34.848Z,11.53
2022-10-21T02:56:01.367Z,11.23
2022-10-21T02:58:27.999Z,12.07
2022-10-21T03:00:54.589Z,11.70
2022-10-21T03:03:21.436Z,12.13
2022-10-21T03:05:48.173Z,11.40
2022-10-21T03:08:14.757Z,11.93
2022-10-21T03:10:41.217Z,12.37
2022-10-21T03:13:07.703Z,12.23
2022-10-21T03:15:34.193Z,13.03
2022-10-21T03:18:00.665Z,11.00
2022-10-21T03:20:27.142Z,12.00
2022-10-21T03:22:53.581Z,11.73
2022-10-21T03:25:20.100Z,12.70
2022-10-21T03:27:46.573Z,12.23
2022-10-21T03:30:13.095Z,11.83
2022-10-21T03:32:39.852Z,12.37
2022-10-21T03:35:06.993Z,12.63
2022-10-21T03:37:33.504Z,12.60
2022-10-21T03:40:00.005Z,12.73
2022-10-21T03:42:28.290Z,11.30
2022-10-21T03:44:54.759Z,11.90
2022-10-21T03:47:21.208Z,11.63
2022-10-21T03:49:47.849Z,12.50
2022-10-21T03:52:14.257Z,11.63
2022-10-21T03:54:40.666Z,11.73
2022-10-21T03:57:07.089Z,12.27
2022-10-21T03:59:33.621Z,11.17
2022-10-21T04:02:00.186Z,12.33
2022-10-21T04:04:26.711Z,11.80
2022-10-21T04:06:53.197Z,11.53
2022-10-21T04:09:19.720Z,11.83
2022-10-21T04:11:46.345Z,12.57
2022-10-21T04:14:15.263Z,12.50
2022-10-21T04:16:42.307Z,12.60
2022-10-21T04:19:09.052Z,12.07
2022-10-21T04:21:35.672Z,13.63
2022-10-21T04:24:02.212Z,12.40
2022-10-21T04:26:28.627Z,13.20
2022-10-21T04:28:55.113Z,14.50
2022-10-21T04:31:21.622Z,13.30
2022-10-21T04:33:48.246Z,12.83
2022-10-21T04:36:14.985Z,13.73
2022-10-21T04:38:41.452Z,14.07
2022-10-21T04:41:07.951Z,14.00
2022-10-21T04:43:35.101Z,13.50
2022-10-21T04:46:01.559Z,13.23
2022-10-21T04:48:27.988Z,13.80
2022-10-21T04:50:54.836Z,13.13
2022-10-21T04:53:22.397Z,13.70
2022-10-21T04:55:54.768Z,13.13
2022-10-21T04:58:22.624Z,12.50
2022-10-21T05:00:50.253Z,12.50
2022-10-21T05:03:16.985Z,12.47
2022-10-21T05:05:43.773Z,12.53
2022-10-21T05:08:11.667Z,12.07
2022-10-21T05:10:38.526Z,12.47
2022-10-21T05:13:06.096Z,12.30
2022-10-21T05:15:33.315Z,11.93
2022-10-21T05:17:59.723Z,12.13
2022-10-21T05:20:26.300Z,12.10
2022-10-21T05:22:53.684Z,12.80
2022-10-21T05:25:20.869Z,12.03
2022-10-21T05:27:47.727Z,11.60
2022-10-21T05:30:14.635Z,11.43
2022-10-21T05:32:42.093Z,12.07
2022-10-21T05:35:09.129Z,11.93
2022-10-21T05:37:35.848Z,12.07
2022-10-21T05:40:04.300Z,11.30
2022-10-21T05:42:31.367Z,11.67
2022-10-21T05:44:58.045Z,11.53
2022-10-21T05:47:24.941Z,10.67
2022-10-21T05:49:51.573Z,11.27
2022-10-21T05:52:18.134Z,11.40
2022-10-21T05:54:44.742Z,11.03
2022-10-21T05:57:11.198Z,11.17
2022-10-21T05:59:37.841Z,11.10
2022-10-21T06:02:04.351Z,11.37
2022-10-21T06:04:36.333Z,11.93
2022-10-21T06:07:05.354Z,10.60
2022-10-21T06:09:32.663Z,10.20
2022-10-21T06:11:59.467Z,10.33
2022-10-21T06:14:27.066Z,10.83
2022-10-21T06:16:53.492Z,10.50
2022-10-21T06:19:20.100Z,10.77
2022-10-21T06:21:48.119Z,12.03
2022-10-21T06:24:14.863Z,10.87
2022-10-21T06:26:41.500Z,10.73
2022-10-21T06:29:08.148Z,10.57
2022-10-21T06:31:35.021Z,11.90
2022-10-21T06:34:01.616Z,10.73
2022-10-21T06:36:28.676Z,10.87
2022-10-21T06:38:55.433Z,11.10
2022-10-21T06:41:22.269Z,11.10
2022-10-21T06:43:48.752Z,10.97
2022-10-21T06:46:15.623Z,11.20
2022-10-21T06:48:42.250Z,10.03
2022-10-21T06:51:20.731Z,10.87
2022-10-21T06:53:47.983Z,10.67
2022-10-21T06:56:17.198Z,11.10
2022-10-21T06:58:47.998Z,10.50
2022-10-21T07:01:34.273Z,10.47
2022-10-21T07:04:08.807Z,10.57
2022-10-21T07:06:35.717Z,10.43
2022-10-21T07:09:03.170Z,11.17
2022-10-21T07:11:29.830Z,11.13
2022-10-21T07:13:56.286Z,10.73
2022-10-21T07:16:33.129Z,10.90
2022-10-21T07:18:59.637Z,10.17
2022-10-21T07:21:29.495Z,11.00
2022-10-21T07:23:59.414Z,11.23
2022-10-21T07:26:27.705Z,10.77
2022-10-21T07:28:55.664Z,11.30
2022-10-21T07:31:22.298Z,10.70
2022-10-21T07:33:49.533Z,10.77
2022-10-21T07:36:23.897Z,13.10
2022-10-21T07:38:51.744Z,10.80
2022-10-21T07:41:21.216Z,11.13
2022-10-21T07:43:48.188Z,10.90
2022-10-21T07:46:15.546Z,10.43
2022-10-21T07:48:42.342Z,10.07
2022-10-21T07:51:11.107Z,9.93
2022-10-21T07:53:38.570Z,9.90
2022-10-21T07:56:12.467Z,11.83
2022-10-21T07:58:39.045Z,10.57
2022-10-21T08:01:07.246Z,10.97
2022-10-21T08:03:35.543Z,11.17
2022-10-21T08:06:02.688Z,10.73
2022-10-21T08:08:29.427Z,11.00
2022-10-21T08:10:56.984Z,10.20
2022-10-21T08:13:23.968Z,10.33
2022-10-21T08:15:53.311Z,11.00
2022-10-21T08:18:21.052Z,10.93
2022-10-21T08:20:49.270Z,10.50
2022-10-21T08:23:17.065Z,10.70
2022-10-21T08:25:51.323Z,10.27
2022-10-21T08:28:18.085Z,10.27
2022-10-21T08:30:45.002Z,10.53
2022-10-21T08:33:12.820Z,9.93
2022-10-21T08:35:39.692Z,10.10
2022-10-21T08:40:45.770Z,9.47
2022-10-21T08:43:33.807Z,9.80
2022-10-21T08:46:06.282Z,9.73
2022-10-21T08:48:38.655Z,9.13
2022-10-21T08:51:06.916Z,9.27
2022-10-21T08:53:38.047Z,9.97
2022-10-21T08:56:14.587Z,10.10
2022-10-21T08:58:47.642Z,10.63
2022-10-21T09:01:33.191Z,9.30
2022-10-21T09:04:19.098Z,9.80
2022-10-21T09:06:58.641Z,10.33
2022-10-21T09:09:35.143Z,9.60
2022-10-21T09:12:13.453Z,9.93
2022-10-21T09:14:54.463Z,9.97
2022-10-21T09:17:42.787Z,9.33
2022-10-21T09:20:27.437Z,9.83
2022-10-21T09:23:17.052Z,9.43
2022-10-21T09:26:04.668Z,9.50
2022-10-21T09:28:32.435Z,9.60
2022-10-21T09:31:01.153Z,9.23
2022-10-21T09:33:30.774Z,10.13
2022-10-21T09:36:07.172Z,11.23
2022-10-21T09:38:55.801Z,9.77
2022-10-21T09:41:30.586Z,10.37
2022-10-21T09:43:57.152Z,9.13
2022-10-21T09:46:23.849Z,8.93
2022-10-21T09:49:36.793Z,8.93
2022-10-21T09:51:40.544Z,9.30
2022-10-21T09:54:22.749Z,8.10
2022-10-21T09:56:57.132Z,8.47
2022-10-21T09:59:29.063Z,8.07
2022-10-21T10:02:07.016Z,8.27
2022-10-21T10:04:35.413Z,9.47
2022-10-21T10:07:26.717Z,9.27
2022-10-21T10:09:53.248Z,8.33
2022-10-21T10:12:24.961Z,8.67
2022-10-21T10:14:51.808Z,8.97
2022-10-21T10:17:32.132Z,8.97
2022-10-21T10:20:04.519Z,9.13
2022-10-21T10:22:32.749Z,8.50
2022-10-21T10:25:12.219Z,8.37
2022-10-21T10:28:07.731Z,8.37
2022-10-21T10:30:45.457Z,8.63
2022-10-21T10:33:25.351Z,8.47
2022-10-21T10:35:53.685Z,8.63
2022-10-21T10:38:38.352Z,8.47
2022-10-21T10:41:15.995Z,8.37
2022-10-21T10:43:54.397Z,8.20
2022-10-21T10:46:34.258Z,8.80
2022-10-21T10:49:17.629Z,7.73
2022-10-21T10:51:46.748Z,8.40
2022-10-21T10:54:17.858Z,8.13
2022-10-21T10:56:59.779Z,8.00
2022-10-21T10:59:32.841Z,8.00
2022-10-21T11:02:16.665Z,8.00
2022-10-21T11:05:08.946Z,8.30
2022-10-21T11:07:51.029Z,7.97
2022-10-21T11:10:27.713Z,7.40
2022-10-21T11:12:54.429Z,8.50
2022-10-21T11:15:25.949Z,8.00
2022-10-21T11:18:07.454Z,8.10
2022-10-21T11:20:51.754Z,7.87
2022-10-21T11:23:26.948Z,7.27
2022-10-21T11:26:03.537Z,7.33
2022-10-21T11:28:34.783Z,7.47
2022-10-21T11:31:07.047Z,7.23
2022-10-21T11:33:46.518Z,6.67
2022-10-21T11:36:25.152Z,7.27
2022-10-21T11:39:17.231Z,7.80
2022-10-21T11:41:50.698Z,8.23
2022-10-21T11:44:40.013Z,7.63
2022-10-21T11:47:25.872Z,8.40
2022-10-21T11:50:04.316Z,8.00
2022-10-21T11:53:12.057Z,8.80
2022-10-21T11:55:58.549Z,8.17
2022-10-21T11:58:59.554Z,7.67
2022-10-21T12:01:32.973Z,7.97
2022-10-21T12:04:17.422Z,7.77
2022-10-21T12:07:14.354Z,7.90
2022-10-21T12:09:49.676Z,7.97
2022-10-21T12:12:18.589Z,8.27
2022-10-21T12:14:58.168Z,7.93
2022-10-21T12:17:25.616Z,7.90
2022-10-21T12:19:57.001Z,8.30
2022-10-21T12:22:25.074Z,8.77
2022-10-21T12:25:13.370Z,8.53
2022-10-21T12:27:42.121Z,7.80
2022-10-21T12:30:23.357Z,8.53
2022-10-21T12:33:08.313Z,8.53
2022-10-21T12:35:55.272Z,8.40
2022-10-21T12:38:26.404Z,8.30
2022-10-21T12:41:23.837Z,7.57
2022-10-21T12:43:59.399Z,8.73
2022-10-21T12:46:46.524Z,8.37
2022-10-21T12:49:33.634Z,8.10
2022-10-21T12:52:03.005Z,8.27
2022-10-21T12:54:32.179Z,8.10
2022-10-21T12:57:01.754Z,8.53
2022-10-21T12:59:36.551Z,8.07
2022-10-21T13:02:05.632Z,7.83
2022-10-21T13:04:32.391Z,8.07
2022-10-21T13:07:00.112Z,7.63
2022-10-21T13:09:51.043Z,8.20
2022-10-21T13:12:17.360Z,6.87
2022-10-21T13:14:47.912Z,7.23
2022-10-21T13:17:24.590Z,7.87
2022-10-21T13:20:16.095Z,7.97
2022-10-21T13:22:47.053Z,7.87
2022-10-21T13:25:16.101Z,8.23
2022-10-21T13:27:45.163Z,7.83
2022-10-21T13:30:35.942Z,7.80
2022-10-21T13:33:07.021Z,7.17
2022-10-21T13:35:54.451Z,7.13
2022-10-21T13:38:23.045Z,7.00
2022-10-21T13:40:55.971Z,7.17
2022-10-21T13:43:30.898Z,7.80
2022-10-21T13:46:10.201Z,7.73
2022-10-21T13:48:41.812Z,7.07
2022-10-21T13:51:18.338Z,7.30
2022-10-21T13:53:48.103Z,7.17
2022-10-21T13:56:23.890Z,7.27
2022-10-21T13:58:51.043Z,7.20
2022-10-21T14:01:21.947Z,7.33
2022-10-21T14:06:20.672Z,7.03
2022-10-21T14:08:47.671Z,7.03
2022-10-21T14:11:21.108Z,6.90
2022-10-21T14:13:48.630Z,6.47
2022-10-21T14:16:32.406Z,7.30
2022-10-21T14:18:59.924Z,6.50
2022-10-21T14:21:28.041Z,7.40
2022-10-21T14:23:54.667Z,7.40
2022-10-21T14:26:21.338Z,7.23
2022-10-21T14:28:49.508Z,7.17
2022-10-21T14:31:16.125Z,7.10
2022-10-21T14:33:45.425Z,7.70
2022-10-21T14:36:18.729Z,6.90
2022-10-21T14:38:58.784Z,8.10
2022-10-21T14:41:37.657Z,6.63
2022-10-21T14:44:25.368Z,6.60
2022-10-21T14:46:53.926Z,6.80
2022-10-21T14:49:27.732Z,6.60
2022-10-21T14:52:00.174Z,7.20
2022-10-21T14:54:49.577Z,7.03
2022-10-21T14:57:26.757Z,7.90
2022-10-21T14:59:53.369Z,6.90
2022-10-21T15:02:23.170Z,7.20
2022-10-21T15:04:52.922Z,6.70
2022-10-21T15:07:29.818Z,7.40
2022-10-21T15:10:04.353Z,6.83
2022-10-21T15:12:45.681Z,6.87
2022-10-21T15:15:40.288Z,7.30
2022-10-21T15:18:23.301Z,7.43
2022-10-21T15:20:57.481Z,6.47
2022-10-21T15:23:48.917Z,11.33
2022-10-21T15:26:21.471Z,7.87
2022-10-21T15:28:48.164Z,8.00
2022-10-21T15:31:24.100Z,8.93
2022-10-21T15:33:52.934Z,8.47
2022-10-21T15:36:19.489Z,7.70
2022-10-21T15:38:46.978Z,7.23
2022-10-21T15:41:15.983Z,7.57
2022-10-21T15:43:43.667Z,8.10
2022-10-21T15:46:11.922Z,8.13
2022-10-21T15:48:38.679Z,8.47
2022-10-21T15:51:05.206Z,8.33
2022-10-21T15:53:32.556Z,9.37
2022-10-21T15:56:01.057Z,8.97
2022-10-21T15:58:27.727Z,8.63
2022-10-21T16:00:54.235Z,8.57
2022-10-21T16:03:20.864Z,8.77
2022-10-21T16:05:47.471Z,8.87
2022-10-21T16:08:13.943Z,8.60
2022-10-21T16:10:47.684Z,8.53
2022-10-21T16:13:15.161Z,8.30
2022-10-21T16:15:41.730Z,7.93
2022-10-21T16:18:13.369Z,8.23
2022-10-21T16:20:41.576Z,8.30
2022-10-21T16:23:09.516Z,12.17
2022-10-21T16:25:36.369Z,8.87
2022-10-21T16:28:03.421Z,9.80
2022-10-21T16:30:34.568Z,8.37
2022-10-21T16:33:01.237Z,9.20
2022-10-21T16:35:28.024Z,10.23
2022-10-21T16:37:56.124Z,9.23
2022-10-21T16:40:33.219Z,10.23
2022-10-21T16:42:59.873Z,9.63
2022-10-21T16:45:34.961Z,9.10
2022-10-21T16:48:03.897Z,10.17
2022-10-21T16:50:40.934Z,9.00
2022-10-21T16:53:17.130Z,9.83
2022-10-21T16:55:43.823Z,9.80
2022-10-21T16:58:10.420Z,10.07
2022-10-21T17:00:37.024Z,10.53
2022-10-21T17:03:04.062Z,9.57
2022-10-21T17:05:31.315Z,9.93
2022-10-21T17:07:59.929Z,9.50
2022-10-21T17:10:26.535Z,9.33
2022-10-21T17:12:58.676Z,9.93
2022-10-21T17:15:25.984Z,10.37
2022-10-21T17:17:52.807Z,10.13
2022-10-21T17:20:19.570Z,10.37
2022-10-21T17:22:46.802Z,10.30
2022-10-21T17:25:13.577Z,10.37
2022-10-21T17:27:40.385Z,9.97
2022-10-21T17:30:07.806Z,10.43
2022-10-21T17:32:35.162Z,11.10
2022-10-21T17:35:01.684Z,11.00
2022-10-21T17:37:28.096Z,11.40
2022-10-21T17:39:54.688Z,10.50
2022-10-21T17:42:21.244Z,9.83
2022-10-21T17:44:48.016Z,10.60
2022-10-21T17:47:15.147Z,10.97
2022-10-21T17:49:42.033Z,12.63
2022-10-21T17:52:09.550Z,12.13
2022-10-21T17:54:36.499Z,11.47
2022-10-21T17:57:03.571Z,11.10
2022-10-21T17:59:32.612Z,11.73
2022-10-21T18:01:59.885Z,11.30
2022-10-21T18:04:26.561Z,10.97
2022-10-21T18:06:53.073Z,11.13
2022-10-21T18:09:19.927Z,11.60
2022-10-21T18:11:46.504Z,11.20
2022-10-21T18:14:14.220Z,12.83
2022-10-21T18:16:41.294Z,17.13
2022-10-21T18:19:07.961Z,14.73
2022-10-21T18:21:34.550Z,14.60
2022-10-21T18:24:01.261Z,13.67
2022-10-21T18:26:29.520Z,11.83
2022-10-21T18:28:58.029Z,10.60
2022-10-21T18:31:28.122Z,11.13
2022-10-21T18:33:55.846Z,11.30
2022-10-21T18:36:23.479Z,12.37
2022-10-21T18:38:50.126Z,12.27
2022-10-21T18:41:20.494Z,11.23
2022-10-21T18:43:49.523Z,12.53
2022-10-21T18:46:16.713Z,12.27
2022-10-21T18:48:43.432Z,11.03
2022-10-21T18:51:11.422Z,10.90
2022-10-21T18:53:39.150Z,11.37
2022-10-21T18:56:07.578Z,11.57
2022-10-21T18:58:34.937Z,12.03
2022-10-21T19:01:01.583Z,11.80
2022-10-21T19:03:28.187Z,11.57
2022-10-21T19:05:55.101Z,13.97
2022-10-21T19:08:22.241Z,11.60
2022-10-21T19:10:48.808Z,12.17
2022-10-21T19:13:15.375Z,13.10
2022-10-21T19:15:42.449Z,13.40
2022-10-21T19:18:12.420Z,14.23
2022-10-21T19:20:40.247Z,13.13
2022-10-21T19:23:07.892Z,13.47
2022-10-21T19:25:34.802Z,13.50
2022-10-21T19:28:01.244Z,13.87
2022-10-21T19:30:27.904Z,13.70
2022-10-21T19:32:54.544Z,13.43
2022-10-21T19:35:20.983Z,14.20
2022-10-21T19:37:47.401Z,13.53
2022-10-21T19:40:13.844Z,14.20
2022-10-21T19:42:41.266Z,14.23
2022-10-21T19:45:09.595Z,12.87
2022-10-21T19:47:36.623Z,14.43
2022-10-21T19:50:03.217Z,13.40
2022-10-21T19:52:29.687Z,13.80
2022-10-21T19:54:56.140Z,12.93
2022-10-21T19:57:22.608Z,14.27
2022-10-21T19:59:49.102Z,14.33
2022-10-21T20:02:15.561Z,13.93
2022-10-21T20:04:41.989Z,13.83
2022-10-21T20:07:08.499Z,14.30
2022-10-21T20:09:37.975Z,13.83
2022-10-21T20:12:05.443Z,13.37
2022-10-21T20:14:33.053Z,13.90
2022-10-21T20:16:59.512Z,13.30
2022-10-21T20:19:26.240Z,13.63
2022-10-21T20:21:52.645Z,14.40
2022-10-21T20:24:19.157Z,14.17
2022-10-21T20:26:49.021Z,14.27
2022-10-21T20:29:15.586Z,14.00
2022-10-21T20:31:42.333Z,14.10
2022-10-21T20:34:12.209Z,13.23
2022-10-21T20:36:38.869Z,13.57
2022-10-21T20:39:05.586Z,13.93
2022-10-21T20:41:34.610Z,13.77
2022-10-21T20:44:02.156Z,14.60
2022-10-21T20:46:32.389Z,15.47
2022-10-21T20:48:59.176Z,15.13
2022-10-21T20:51:29.018Z,14.57
2022-10-21T20:53:58.326Z,14.57
2022-10-21T20:56:29.819Z,16.10
2022-10-21T20:58:56.796Z,16.43
2022-10-21T21:01:25.707Z,15.13
2022-10-21T21:03:59.049Z,16.00
2022-10-21T21:06:26.148Z,16.00
2022-10-21T21:09:22.209Z,16.07
2022-10-21T21:11:39.470Z,15.43
2022-10-21T21:14:06.119Z,15.40
2022-10-21T21:16:32.856Z,16.83
2022-10-21T21:19:04.505Z,17.53
2022-10-21T21:21:33.991Z,16.80
2022-10-21T21:24:01.045Z,16.37
2022-10-21T21:26:33.001Z,17.37
2022-10-21T21:29:00.481Z,17.97
2022-10-21T21:31:28.234Z,16.33
2022-10-21T21:33:55.396Z,16.90
2022-10-21T21:36:22.306Z,18.17
2022-10-21T21:38:50.301Z,17.67
2022-10-21T21:41:17.489Z,18.20
2022-10-21T21:43:47.928Z,18.60
2022-10-21T21:46:22.742Z,17.03
2022-10-21T21:48:54.177Z,17.93
2022-10-21T21:51:23.400Z,18.00
2022-10-21T21:53:50.451Z,17.50
2022-10-21T21:56:19.236Z,18.63
2022-10-21T21:58:47.800Z,17.57
2022-10-21T22:01:16.846Z,17.60
2022-10-21T22:03:43.620Z,17.90
2022-10-21T22:06:10.665Z,18.93
2022-10-21T22:08:40.260Z,18.23
2022-10-21T22:11:13.284Z,18.57
2022-10-21T22:13:40.498Z,19.07
2022-10-21T22:16:08.896Z,18.57
2022-10-21T22:18:36.088Z,19.23
2022-10-21T22:21:05.240Z,17.97
2022-10-21T22:23:32.200Z,19.40
2022-10-21T22:25:58.994Z,18.73
2022-10-21T22:28:25.982Z,20.00
2022-10-21T22:31:03.880Z,18.83
2022-10-21T22:33:31.128Z,20.13
2022-10-21T22:35:57.637Z,18.47
2022-10-21T22:38:24.263Z,19.20
2022-10-21T22:40:54.379Z,19.73
2022-10-21T22:43:21.658Z,19.53
2022-10-21T22:45:48.314Z,19.07
2022-10-21T22:48:15.471Z,19.23
2022-10-21T22:50:41.967Z,19.70
2022-10-21T22:53:09.349Z,19.40
2022-10-21T22:55:36.256Z,19.37
2022-10-21T22:58:02.679Z,18.73
2022-10-21T23:00:29.135Z,19.03
2022-10-21T23:02:55.557Z,20.13
2022-10-21T23:05:22.850Z,19.30
2022-10-21T23:07:49.364Z,18.87
2022-10-21T23:10:15.942Z,19.93
2022-10-21T23:12:42.732Z,19.83
2022-10-21T23:15:09.979Z,19.53
2022-10-21T23:17:36.387Z,20.53
2022-10-21T23:20:03.023Z,18.87
2022-10-21T23:22:29.535Z,19.40
2022-10-21T23:24:56.104Z,20.07
2022-10-21T23:27:22.524Z,20.07
2022-10-21T23:29:48.944Z,20.83
2022-10-21T23:32:15.369Z,19.90
2022-10-21T23:34:41.825Z,19.47
2022-10-21T23:37:08.536Z,20.17
2022-10-21T23:39:35.234Z,19.40
2022-10-21T23:42:01.741Z,20.33
2022-10-21T23:44:29.409Z,19.63
2022-10-21T23:46:56.852Z,20.13
2022-10-21T23:49:23.513Z,19.27
2022-10-21T23:51:50.228Z,19.73
2022-10-21T23:54:16.712Z,20.27
2022-10-21T23:56:43.301Z,20.23
2022-10-21T23:59:09.777Z,20.43
